createdAt,value
2023-05-02T00:01:22.158Z,6.93
2023-05-02T00:03:49.521Z,6.50
2023-05-02T00:06:17.251Z,7.40
2023-05-02T00:08:44.777Z,6.38
2023-05-02T00:11:12.076Z,6.40
2023-05-02T00:13:39.409Z,5.85
2023-05-02T00:16:07.009Z,6.72
2023-05-02T00:18:34.430Z,6.75
2023-05-02T00:21:01.876Z,6.85
2023-05-02T00:23:29.543Z,6.93
2023-05-02T00:25:56.816Z,6.60
2023-05-02T00:28:24.187Z,7.20
2023-05-02T00:30:51.426Z,7.30
2023-05-02T00:33:18.631Z,7.30
2023-05-02T00:35:46.007Z,7.53
2023-05-02T00:38:13.361Z,7.55
2023-05-02T00:40:58.811Z,8.20
2023-05-02T00:43:26.118Z,7.47
2023-05-02T00:45:53.455Z,9.05
2023-05-02T00:50:52.128Z,10.07
2023-05-02T00:53:19.415Z,9.88
2023-05-02T00:55:47.051Z,9.20
2023-05-02T00:58:15.107Z,9.75
2023-05-02T01:00:55.928Z,11.48
2023-05-02T01:04:02.525Z,11.00
2023-05-02T01:06:39.365Z,11.05
2023-05-02T01:09:18.723Z,10.95
2023-05-02T01:12:11.681Z,11.27
2023-05-02T01:14:42.720Z,11.70
2023-05-02T01:17:11.777Z,11.38
2023-05-02T01:19:40.916Z,11.95
2023-05-02T01:22:09.784Z,11.68
2023-05-02T01:24:52.985Z,11.77
2023-05-02T01:27:42.142Z,12.15
2023-05-02T01:30:09.711Z,11.30
2023-05-02T01:32:37.581Z,11.75
2023-05-02T01:35:05.261Z,13.05
2023-05-02T01:37:33.353Z,12.27
2023-05-02T01:40:01.137Z,12.35
2023-05-02T01:42:29.057Z,12.07
2023-05-02T01:44:56.825Z,12.73
2023-05-02T01:47:24.272Z,12.60
2023-05-02T01:49:51.585Z,13.13
2023-05-02T01:52:18.810Z,12.52
2023-05-02T01:54:46.165Z,13.35
2023-05-02T01:57:13.379Z,12.40
2023-05-02T01:59:41.064Z,13.13
2023-05-02T02:02:08.581Z,12.75
2023-05-02T02:04:37.679Z,13.88
2023-05-02T02:07:07.494Z,12.07
2023-05-02T02:09:35.518Z,12.03
2023-05-02T02:12:06.842Z,12.98
2023-05-02T02:14:35.580Z,13.50
2023-05-02T02:17:07.094Z,11.52
2023-05-02T02:19:34.457Z,11.15
2023-05-02T02:22:01.737Z,13.43
2023-05-02T02:24:29.259Z,12.45
2023-05-02T02:26:56.531Z,11.70
2023-05-02T02:29:23.918Z,12.98
2023-05-02T02:31:51.138Z,13.02
2023-05-02T02:34:18.367Z,11.57
2023-05-02T02:36:54.604Z,11.45
2023-05-02T02:39:58.491Z,12.45
2023-05-02T02:42:28.150Z,12.55
2023-05-02T02:45:09.391Z,12.73
2023-05-02T02:47:56.794Z,11.43
2023-05-02T02:50:30.443Z,11.10
2023-05-02T02:53:03.034Z,10.95
2023-05-02T02:55:38.137Z,10.93
2023-05-02T02:58:22.228Z,9.15
2023-05-02T03:00:49.823Z,9.65
2023-05-02T03:03:17.100Z,8.95
2023-05-02T03:05:44.604Z,8.50
2023-05-02T03:08:12.256Z,8.70
2023-05-02T03:10:39.535Z,8.00
2023-05-02T03:13:06.789Z,9.02
2023-05-02T03:15:51.177Z,7.22
2023-05-02T03:18:19.215Z,7.88
2023-05-02T03:20:46.901Z,7.07
2023-05-02T03:23:14.135Z,7.03
2023-05-02T03:25:41.758Z,6.32
2023-05-02T03:28:08.996Z,6.60
2023-05-02T03:30:40.603Z,6.20
2023-05-02T03:33:09.024Z,6.55
2023-05-02T03:35:36.511Z,6.38
2023-05-02T03:38:03.724Z,5.68
2023-05-02T03:40:31.183Z,4.80
2023-05-02T03:42:58.358Z,5.28
2023-05-02T03:45:25.718Z,5.65
2023-05-02T03:47:53.058Z,4.88
2023-05-02T03:50:20.542Z,4.95
2023-05-02T03:52:47.791Z,5.65
2023-05-02T03:55:15.172Z,5.75
2023-05-02T03:57:42.380Z,5.20
2023-05-02T04:00:10.217Z,5.93
2023-05-02T04:02:38.258Z,5.38
2023-05-02T04:05:05.887Z,5.68
2023-05-02T04:07:33.274Z,5.88
2023-05-02T04:10:00.818Z,5.32
2023-05-02T04:12:28.336Z,5.70
2023-05-02T04:14:55.831Z,5.18
2023-05-02T04:17:23.069Z,5.72
2023-05-02T04:19:51.490Z,5.05
2023-05-02T04:22:18.733Z,5.13
2023-05-02T04:24:45.959Z,5.65
2023-05-02T04:27:15.150Z,4.47
2023-05-02T04:29:42.733Z,5.18
2023-05-02T04:32:10.318Z,5.32
2023-05-02T04:34:37.745Z,5.57
2023-05-02T04:37:05.161Z,5.25
2023-05-02T04:39:32.511Z,5.60
2023-05-02T04:41:59.858Z,5.45
2023-05-02T04:44:27.500Z,5.68
2023-05-02T04:46:54.819Z,4.90
2023-05-02T04:49:22.077Z,4.72
2023-05-02T04:51:49.806Z,6.38
2023-05-02T04:54:17.079Z,4.75
2023-05-02T04:56:44.443Z,5.47
2023-05-02T04:59:11.865Z,5.55
2023-05-02T05:01:39.125Z,5.15
2023-05-02T05:04:06.550Z,5.90
2023-05-02T05:06:33.919Z,5.30
2023-05-02T05:09:01.249Z,5.85
2023-05-02T05:11:28.654Z,5.90
2023-05-02T05:13:56.773Z,5.25
2023-05-02T05:16:24.235Z,5.15
2023-05-02T05:18:53.867Z,6.18
2023-05-02T05:21:21.183Z,6.32
2023-05-02T05:23:48.729Z,5.80
2023-05-02T05:26:16.395Z,6.25
2023-05-02T05:28:44.031Z,6.63
2023-05-02T05:31:14.518Z,5.35
2023-05-02T05:33:43.805Z,6.47
2023-05-02T05:36:12.283Z,6.22
2023-05-02T05:38:39.678Z,5.78
2023-05-02T05:41:07.878Z,5.32
2023-05-02T05:43:37.249Z,5.18
2023-05-02T05:46:05.364Z,5.85
2023-05-02T05:48:34.667Z,6.30
2023-05-02T05:51:05.534Z,5.32
2023-05-02T05:53:34.180Z,5.40
2023-05-02T05:56:11.273Z,5.95
2023-05-02T05:58:39.356Z,5.68
2023-05-02T06:01:07.282Z,5.88
2023-05-02T06:03:34.748Z,5.38
2023-05-02T06:06:02.152Z,5.80
2023-05-02T06:08:30.115Z,6.05
2023-05-02T06:10:57.334Z,5.97
2023-05-02T06:13:25.008Z,6.18
2023-05-02T06:15:52.274Z,5.35
2023-05-02T06:18:19.663Z,4.90
2023-05-02T06:20:46.978Z,4.10
2023-05-02T06:23:14.191Z,4.93
2023-05-02T06:25:41.490Z,4.40
2023-05-02T06:28:09.573Z,3.83
2023-05-02T06:30:36.897Z,3.40
2023-05-02T06:33:05.139Z,4.50
2023-05-02T06:35:32.421Z,4.28
2023-05-02T06:37:59.670Z,5.22
2023-05-02T06:40:27.012Z,4.35
2023-05-02T06:42:54.434Z,4.57
2023-05-02T06:45:21.781Z,3.75
2023-05-02T06:47:49.065Z,5.20
2023-05-02T06:50:16.372Z,4.70
2023-05-02T06:52:43.732Z,3.88
2023-05-02T06:55:11.076Z,2.40
2023-05-02T06:57:38.379Z,4.03
2023-05-02T07:00:06.315Z,4.95
2023-05-02T07:02:34.326Z,3.72
2023-05-02T07:05:01.597Z,3.13
2023-05-02T07:07:29.133Z,6.18
2023-05-02T07:09:56.485Z,5.85
2023-05-02T07:12:23.716Z,4.80
2023-05-02T07:14:51.291Z,2.20
2023-05-02T07:17:18.677Z,4.32
2023-05-02T07:19:45.936Z,4.72
2023-05-02T07:22:13.618Z,2.22
2023-05-02T07:24:41.723Z,1.70
2023-05-02T07:27:09.807Z,6.00
2023-05-02T07:29:37.166Z,4.50
2023-05-02T07:32:05.126Z,7.18
2023-05-02T07:34:32.730Z,4.47
2023-05-02T07:36:59.987Z,3.78
2023-05-02T07:39:27.284Z,4.72
2023-05-02T07:41:54.720Z,5.45
2023-05-02T07:44:21.967Z,6.35
2023-05-02T07:46:49.419Z,7.72
2023-05-02T07:49:16.814Z,11.30
2023-05-02T07:51:45.798Z,5.07
2023-05-02T07:54:19.929Z,1.80
2023-05-02T07:56:49.997Z,2.90
2023-05-02T07:59:17.215Z,1.80
2023-05-02T08:01:44.932Z,5.45
2023-05-02T08:04:13.076Z,2.65
2023-05-02T08:06:40.988Z,4.28
2023-05-02T08:09:09.359Z,9.55
2023-05-02T08:11:36.620Z,10.30
2023-05-02T08:14:03.891Z,8.05
2023-05-02T08:16:31.428Z,8.13
2023-05-02T08:18:58.878Z,6.03
2023-05-02T08:21:27.458Z,3.33
2023-05-02T08:24:00.344Z,2.20
2023-05-02T08:26:27.637Z,3.25
2023-05-02T08:28:55.620Z,7.57
2023-05-02T08:31:22.965Z,6.40
2023-05-02T08:33:50.533Z,6.20
2023-05-02T08:36:18.138Z,9.63
2023-05-02T08:38:45.791Z,6.97
2023-05-02T08:41:19.362Z,6.80
2023-05-02T08:43:46.692Z,10.05
2023-05-02T08:46:15.955Z,2.25
2023-05-02T08:48:44.825Z,5.57
2023-05-02T08:51:14.208Z,7.68
2023-05-02T08:53:43.450Z,7.35
2023-05-02T08:56:11.407Z,7.05
2023-05-02T08:58:39.913Z,4.63
2023-05-02T09:01:15.361Z,10.52
2023-05-02T09:03:46.840Z,7.40
2023-05-02T09:08:49.516Z,6.93
2023-05-02T09:11:17.210Z,5.43
2023-05-02T09:13:45.497Z,6.25
2023-05-02T09:16:17.221Z,9.18
2023-05-02T09:19:03.072Z,7.00
2023-05-02T09:21:37.382Z,6.82
2023-05-02T09:24:18.754Z,3.15
2023-05-02T09:27:03.405Z,3.03
2023-05-02T09:29:36.206Z,16.35
2023-05-02T09:32:04.345Z,13.98
2023-05-02T09:34:31.884Z,12.60
2023-05-02T09:36:59.248Z,10.75
2023-05-02T09:39:31.007Z,7.10
2023-05-02T09:41:58.505Z,4.05
2023-05-02T09:44:26.932Z,16.05
2023-05-02T09:46:55.116Z,5.05
2023-05-02T09:49:41.228Z,5.63
2023-05-02T09:52:19.860Z,7.40
2023-05-02T09:54:47.573Z,5.65
2023-05-02T09:57:14.891Z,5.28
2023-05-02T09:59:42.122Z,15.50
2023-05-02T10:02:11.640Z,4.25
2023-05-02T10:04:39.414Z,7.55
2023-05-02T10:07:07.450Z,9.80
2023-05-02T10:09:35.825Z,3.35
2023-05-02T10:12:08.309Z,3.65
2023-05-02T10:14:40.072Z,14.15
2023-05-02T10:17:07.917Z,15.85
2023-05-02T10:19:54.741Z,12.73
2023-05-02T10:22:22.308Z,3.20
2023-05-02T10:24:49.759Z,16.38
2023-05-02T10:27:17.022Z,9.20
2023-05-02T10:29:44.433Z,20.27
2023-05-02T10:32:11.679Z,11.48
2023-05-02T10:34:39.051Z,13.07
2023-05-02T10:37:06.459Z,11.55
2023-05-02T10:39:34.702Z,9.10
2023-05-02T10:42:02.348Z,6.97
2023-05-02T10:44:36.849Z,7.22
2023-05-02T10:47:23.329Z,10.98
2023-05-02T10:49:51.438Z,3.38
2023-05-02T10:52:38.564Z,3.95
2023-05-02T10:55:21.430Z,4.53
2023-05-02T10:57:58.621Z,9.48
2023-05-02T11:00:26.889Z,2.00
2023-05-02T11:02:54.303Z,1.98
2023-05-02T11:05:25.066Z,8.00
2023-05-02T11:08:20.032Z,10.82
2023-05-02T11:10:47.709Z,6.07
2023-05-02T11:13:15.044Z,2.28
2023-05-02T11:15:42.326Z,1.77
2023-05-02T11:18:11.877Z,5.53
2023-05-02T11:20:42.530Z,3.90
2023-05-02T11:23:22.066Z,5.45
2023-05-02T11:25:56.515Z,5.13
2023-05-02T11:28:44.625Z,11.57
2023-05-02T11:31:27.224Z,6.65
2023-05-02T11:33:57.630Z,2.30
2023-05-02T11:36:33.540Z,10.73
2023-05-02T11:39:05.850Z,10.13
2023-05-02T11:41:40.402Z,4.85
2023-05-02T11:44:07.671Z,11.18
2023-05-02T11:46:40.954Z,7.75
2023-05-02T11:49:09.789Z,6.35
2023-05-02T11:51:37.582Z,2.83
2023-05-02T11:54:07.634Z,2.10
2023-05-02T11:56:34.858Z,8.07
2023-05-02T11:59:03.387Z,5.35
2023-05-02T12:01:30.871Z,8.10
2023-05-02T12:04:05.627Z,6.05
2023-05-02T12:06:33.262Z,7.03
2023-05-02T12:09:14.124Z,4.57
2023-05-02T12:14:08.657Z,8.07
2023-05-02T12:16:38.709Z,11.82
2023-05-02T12:19:06.020Z,10.07
2023-05-02T12:21:33.466Z,17.05
2023-05-02T12:24:01.359Z,9.85
2023-05-02T12:26:33.183Z,27.80
2023-05-02T12:29:02.940Z,3.65
2023-05-02T12:31:32.191Z,3.20
2023-05-02T12:34:00.544Z,12.73
2023-05-02T12:36:31.463Z,5.07
2023-05-02T12:39:03.844Z,18.63
2023-05-02T12:41:35.615Z,17.10
2023-05-02T12:44:03.422Z,14.52
2023-05-02T12:46:31.895Z,9.82
2023-05-02T12:49:06.909Z,11.43
2023-05-02T12:51:34.708Z,4.07
2023-05-02T12:54:02.636Z,3.10
2023-05-02T12:56:32.828Z,12.95
2023-05-02T12:59:01.506Z,8.43
2023-05-02T13:01:29.319Z,12.95
2023-05-02T13:03:56.627Z,21.65
2023-05-02T13:06:24.325Z,9.32
2023-05-02T13:08:51.722Z,13.25
2023-05-02T13:11:19.444Z,13.10
2023-05-02T13:13:47.933Z,19.17
2023-05-02T13:16:15.765Z,13.85
2023-05-02T13:18:45.424Z,10.18
2023-05-02T13:21:14.368Z,22.40
2023-05-02T13:23:41.641Z,27.27
2023-05-02T13:26:09.176Z,17.95
2023-05-02T13:28:37.463Z,19.40
2023-05-02T13:31:04.885Z,17.00
2023-05-02T13:33:32.457Z,16.17
2023-05-02T13:36:00.019Z,16.17
2023-05-02T13:38:27.349Z,11.18
2023-05-02T13:40:54.608Z,12.52
2023-05-02T13:43:22.241Z,12.15
2023-05-02T13:45:49.900Z,10.32
2023-05-02T13:48:17.385Z,7.03
2023-05-02T13:50:45.367Z,2.20
2023-05-02T13:53:13.050Z,3.65
2023-05-02T13:55:40.758Z,12.50
2023-05-02T13:58:08.037Z,7.32
2023-05-02T14:00:35.655Z,7.20
2023-05-02T14:03:03.010Z,8.32
2023-05-02T14:05:30.412Z,5.78
2023-05-02T14:07:57.867Z,10.10
2023-05-02T14:10:25.563Z,10.27
2023-05-02T14:12:53.124Z,9.57
2023-05-02T14:15:20.970Z,10.52
2023-05-02T14:17:49.619Z,8.00
2023-05-02T14:20:16.864Z,4.05
2023-05-02T14:22:44.580Z,8.32
2023-05-02T14:25:12.874Z,7.85
2023-05-02T14:27:40.616Z,10.48
2023-05-02T14:30:08.566Z,8.10
2023-05-02T14:32:36.607Z,9.52
2023-05-02T14:35:04.154Z,8.80
2023-05-02T14:37:31.452Z,10.75
2023-05-02T14:39:59.538Z,11.70
2023-05-02T14:42:27.017Z,9.40
2023-05-02T14:44:54.311Z,8.77
2023-05-02T14:47:22.620Z,9.60
2023-05-02T14:49:50.177Z,7.57
2023-05-02T14:52:17.384Z,7.45
2023-05-02T14:54:44.707Z,11.45
2023-05-02T14:57:12.128Z,9.75
2023-05-02T14:59:40.344Z,3.15
2023-05-02T15:02:07.775Z,8.15
2023-05-02T15:04:35.471Z,3.95
2023-05-02T15:07:03.675Z,2.83
2023-05-02T15:09:31.445Z,6.90
2023-05-02T15:11:58.739Z,7.88
2023-05-02T15:14:26.101Z,7.72
2023-05-02T15:16:53.560Z,3.83
2023-05-02T15:19:23.293Z,15.95
2023-05-02T15:21:53.129Z,7.95
2023-05-02T15:24:20.373Z,23.92
2023-05-02T15:26:47.768Z,29.20
2023-05-02T15:29:15.419Z,16.25
2023-05-02T15:31:42.819Z,27.15
2023-05-02T15:34:10.111Z,21.45
2023-05-02T15:36:37.560Z,18.63
2023-05-02T15:39:05.316Z,13.38
2023-05-02T15:41:32.652Z,14.55
2023-05-02T15:44:00.161Z,21.17
2023-05-02T15:46:27.688Z,21.65
2023-05-02T15:48:55.046Z,7.95
2023-05-02T15:51:22.282Z,14.93
2023-05-02T15:53:52.429Z,17.70
2023-05-02T15:56:21.550Z,31.10
2023-05-02T15:58:49.012Z,12.73
2023-05-02T16:01:16.396Z,25.15
2023-05-02T16:03:43.817Z,26.92
2023-05-02T16:06:11.448Z,13.80
2023-05-02T16:08:39.409Z,13.88
2023-05-02T16:11:06.648Z,7.63
2023-05-02T16:13:34.433Z,12.35
2023-05-02T16:16:01.756Z,10.70
2023-05-02T16:18:29.348Z,24.75
2023-05-02T16:20:57.165Z,29.10
2023-05-02T16:23:25.741Z,17.05
2023-05-02T16:26:02.931Z,11.68
2023-05-02T16:28:30.769Z,6.15
2023-05-02T16:30:58.116Z,6.35
2023-05-02T16:33:25.381Z,4.85
2023-05-02T16:36:02.644Z,7.43
2023-05-02T16:38:30.157Z,17.50
2023-05-02T16:40:57.569Z,10.73
2023-05-02T16:43:25.051Z,10.48
2023-05-02T16:46:07.387Z,13.95
2023-05-02T16:48:35.352Z,8.65
2023-05-02T16:51:04.173Z,11.40
2023-05-02T16:53:32.099Z,16.50
2023-05-02T16:55:59.852Z,10.75
2023-05-02T16:58:30.307Z,10.25
2023-05-02T17:00:59.153Z,19.02
2023-05-02T17:03:26.791Z,6.18
2023-05-02T17:05:54.204Z,14.23
2023-05-02T17:08:22.329Z,12.68
2023-05-02T17:10:50.450Z,9.02
2023-05-02T17:13:18.009Z,20.50
2023-05-02T17:15:45.350Z,16.05
2023-05-02T17:18:12.762Z,21.83
2023-05-02T17:20:41.148Z,14.52
2023-05-02T17:23:09.107Z,15.50
2023-05-02T17:25:36.560Z,13.02
2023-05-02T17:28:03.872Z,5.97
2023-05-02T17:30:32.105Z,4.25
2023-05-02T17:33:00.543Z,5.75
2023-05-02T17:35:27.861Z,4.72
2023-05-02T17:37:55.509Z,15.63
2023-05-02T17:40:23.047Z,28.27
2023-05-02T17:42:50.315Z,15.43
2023-05-02T17:45:18.083Z,5.95
2023-05-02T17:47:45.365Z,12.30
2023-05-02T17:50:14.228Z,13.77
2023-05-02T17:52:41.649Z,11.88
2023-05-02T17:55:09.150Z,13.02
2023-05-02T17:57:36.439Z,11.50
2023-05-02T18:00:04.602Z,10.70
2023-05-02T18:02:33.898Z,12.90
2023-05-02T18:05:01.868Z,16.05
2023-05-02T18:07:30.203Z,18.08
2023-05-02T18:09:57.491Z,19.95
2023-05-02T18:12:24.841Z,14.60
2023-05-02T18:14:52.676Z,17.33
2023-05-02T18:17:23.126Z,14.85
2023-05-02T18:19:50.404Z,14.07
2023-05-02T18:22:20.116Z,13.82
2023-05-02T18:24:48.635Z,15.48
2023-05-02T18:27:19.078Z,13.95
2023-05-02T18:29:46.559Z,12.80
2023-05-02T18:32:14.861Z,12.38
2023-05-02T18:34:42.041Z,13.80
2023-05-02T18:37:09.917Z,12.50
2023-05-02T18:39:37.230Z,10.70
2023-05-02T18:42:04.630Z,11.15
2023-05-02T18:44:32.157Z,12.18
2023-05-02T18:46:59.470Z,10.82
2023-05-02T18:49:26.758Z,10.65
2023-05-02T18:51:54.519Z,7.45
2023-05-02T18:54:23.406Z,10.43
2023-05-02T18:56:50.827Z,9.85
2023-05-02T18:59:19.057Z,10.65
2023-05-02T19:01:48.433Z,10.85
2023-05-02T19:04:15.946Z,7.72
2023-05-02T19:06:43.251Z,17.27
2023-05-02T19:09:13.231Z,8.52
2023-05-02T19:11:41.453Z,7.43
2023-05-02T19:14:08.795Z,7.38
2023-05-02T19:16:38.184Z,7.75
2023-05-02T19:19:06.880Z,6.65
2023-05-02T19:21:34.779Z,6.82
2023-05-02T19:24:02.755Z,6.45
2023-05-02T19:26:30.487Z,6.65
2023-05-02T19:28:57.790Z,8.10
2023-05-02T19:31:25.217Z,6.10
2023-05-02T19:33:52.729Z,6.05
2023-05-02T19:36:20.384Z,6.43
2023-05-02T19:38:48.990Z,6.28
2023-05-02T19:41:17.156Z,5.72
2023-05-02T19:43:44.641Z,4.88
2023-05-02T19:46:11.947Z,5.88
2023-05-02T19:48:39.498Z,5.30
2023-05-02T19:51:06.890Z,8.70
2023-05-02T19:53:35.108Z,8.80
2023-05-02T19:56:02.937Z,6.38
2023-05-02T19:58:30.663Z,6.10
2023-05-02T20:00:57.973Z,5.55
2023-05-02T20:03:25.601Z,5.40
2023-05-02T20:05:53.127Z,5.10
2023-05-02T20:08:21.604Z,4.65
2023-05-02T20:10:50.744Z,5.03
2023-05-02T20:13:18.137Z,4.70
2023-05-02T20:15:45.513Z,5.57
2023-05-02T20:18:12.813Z,5.38
2023-05-02T20:20:40.066Z,4.80
2023-05-02T20:23:07.280Z,5.53
2023-05-02T20:25:34.521Z,5.00
2023-05-02T20:28:01.999Z,4.88
2023-05-02T20:30:29.532Z,5.03
2023-05-02T20:32:59.467Z,4.47
2023-05-02T20:35:31.591Z,4.63
2023-05-02T20:37:58.855Z,4.30
2023-05-02T20:40:27.657Z,4.22
2023-05-02T20:42:55.053Z,3.92
2023-05-02T20:45:24.397Z,4.20
2023-05-02T20:47:51.910Z,3.88
2023-05-02T20:50:19.353Z,4.50
2023-05-02T20:52:46.763Z,4.07
2023-05-02T20:55:13.999Z,3.58
2023-05-02T20:57:41.376Z,3.58
2023-05-02T21:00:11.361Z,3.28
2023-05-02T21:02:39.200Z,3.60
2023-05-02T21:05:06.571Z,3.28
2023-05-02T21:07:34.116Z,3.15
2023-05-02T21:10:01.664Z,2.92
2023-05-02T21:12:29.314Z,3.28
2023-05-02T21:14:56.585Z,2.90
2023-05-02T21:17:26.292Z,3.03
2023-05-02T21:19:55.899Z,3.05
2023-05-02T21:22:23.233Z,3.53
2023-05-02T21:24:50.915Z,2.90
2023-05-02T21:27:18.525Z,3.38
2023-05-02T21:29:45.879Z,3.60
2023-05-02T21:32:13.197Z,3.13
2023-05-02T21:34:40.826Z,3.72
2023-05-02T21:37:08.052Z,3.25
2023-05-02T21:39:35.589Z,3.40
2023-05-02T21:42:02.845Z,3.13
2023-05-02T21:44:30.156Z,3.25
2023-05-02T21:46:57.396Z,2.90
2023-05-02T21:49:24.639Z,3.03
2023-05-02T21:51:51.828Z,3.30
2023-05-02T21:54:19.051Z,3.38
2023-05-02T21:56:46.563Z,3.30
2023-05-02T21:59:14.139Z,2.90
2023-05-02T22:01:41.680Z,3.72
2023-05-02T22:04:08.991Z,3.75
2023-05-02T22:06:37.137Z,3.50
2023-05-02T22:09:05.073Z,3.33
2023-05-02T22:11:32.518Z,3.40
2023-05-02T22:13:59.708Z,3.67
2023-05-02T22:16:26.980Z,3.17
2023-05-02T22:18:54.262Z,2.72
2023-05-02T22:21:22.385Z,2.80
2023-05-02T22:23:49.714Z,2.95
2023-05-02T22:26:16.930Z,3.13
2023-05-02T22:28:44.147Z,3.25
2023-05-02T22:31:11.453Z,3.10
2023-05-02T22:33:38.711Z,3.60
2023-05-02T22:36:06.174Z,2.90
2023-05-02T22:38:33.453Z,2.90
2023-05-02T22:41:01.351Z,2.70
2023-05-02T22:43:28.672Z,2.67
2023-05-02T22:45:56.345Z,2.15
2023-05-02T22:48:23.747Z,2.58
2023-05-02T22:50:51.014Z,2.83
2023-05-02T22:53:21.625Z,2.38
2023-05-02T22:55:48.974Z,2.70
2023-05-02T22:58:16.313Z,2.58
2023-05-02T23:00:43.617Z,2.75
2023-05-02T23:03:11.563Z,2.30
2023-05-02T23:05:39.142Z,3.03
2023-05-02T23:08:06.723Z,2.45
2023-05-02T23:10:33.970Z,2.60
2023-05-02T23:13:01.226Z,2.72
2023-05-02T23:15:28.481Z,2.67
2023-05-02T23:17:55.847Z,2.80
2023-05-02T23:20:23.270Z,2.88
2023-05-02T23:22:51.284Z,2.58
2023-05-02T23:25:18.566Z,2.55
2023-05-02T23:27:46.064Z,2.50
2023-05-02T23:30:13.325Z,3.15
2023-05-02T23:32:41.166Z,7.43
2023-05-02T23:35:11.090Z,8.98
2023-05-02T23:37:39.405Z,11.88
2023-05-02T23:40:09.302Z,15.30
2023-05-02T23:42:40.119Z,15.70
2023-05-02T23:45:08.885Z,17.02
2023-05-02T23:47:36.722Z,17.55
2023-05-02T23:50:05.485Z,16.60
2023-05-02T23:52:33.532Z,14.70
2023-05-02T23:55:00.895Z,11.38
2023-05-02T23:57:31.230Z,12.30
2023-05-02T23:59:58.479Z,11.90
